Jenny Lake, Wyoming
Current Conditions -  °F | °C
As of 5:56 AM on Saturday 20 Dec 2014 (Local Time) from KDIJ Reporting Station
Overcast Overcast  
Wind Chill: 24°   Ceiling: 3000
Heat Index: 31°   Visibility: 10mi
Dew Point: 26°   Wind: 8mph
Humidity: 82%   Direction: 190°S
Pressure: 30.05"   Gusts: NA
Location:  43.8705°N, 110.836°W
Report Text: KDIJ 201256Z AUTO 19007KT 10SM FEW021 BKN030 OVC038 M01/M03 A3005 RMK AO2 T10051033 SLP173
Loading
Personal Weather Stations






























Interactive Weather Map New forecast layout! Learn more

10-Day Weather Forecast

Advertisements
Track Severe Weather on mobile